Time;durP1;ratioP1;P1;durP2;ratioP2;P2;SDS_P1;SDS_P2;PMS_P1;PMS_P2;Temp;Humidity;BMP_temperature;BMP_pressure;BME280_temperature;BME280_humidity;BME280_pressure;Samples;Min_cycle;Max_cycle;Signal;HPM_P1;HPM_P2
2023/06/28 00:00:22;;;;;;;;;;;;;;;;;;5074413;28;19925;-65
2023/06/28 00:02:48;;;;;;;;;;;;;;;;;;5063242;28;20039;-65
2023/06/28 00:05:14;;;;;;;;;;;;;;;;;;5074354;28;19925;-65
2023/06/28 00:07:39;;;;;;;;;;;;;;;;;;5073261;28;20440;-65
2023/06/28 00:10:05;;;;;;;;;;;;;;;;;;5072823;28;19924;-65
2023/06/28 00:12:31;;;;;;;;;;;;;;;;;;5071520;28;20641;-65
2023/06/28 00:14:57;;;;;;;;;;;;;;;;;;5074038;28;19935;-65
2023/06/28 00:17:27;;;;;;;;;;;;;;;;;;5055840;28;20298;-65
2023/06/28 00:19:53;;;;;;;;;;;;;;;;;;5066308;28;19963;-65
2023/06/28 00:22:19;;;;;;;;;;;;;;;;;;5073860;28;20006;-66
2023/06/28 00:24:45;;;;;;;;;;;;;;;;;;5073367;28;20251;-65
2023/06/28 00:27:11;;;;;;;;;;;;;;;;;;5072252;28;19927;-65
2023/06/28 00:29:37;;;;;;;;;;;;;;;;;;5073919;28;19924;-65
2023/06/28 00:32:02;;;;;;;;;;;;;;;;;;5071131;28;19924;-65
2023/06/28 00:34:28;;;;;;;;;;;;;;;;;;5068695;28;19924;-65
2023/06/28 00:36:54;;;;;;;;;;;;;;;;;;5071521;28;19921;-65
2023/06/28 00:39:20;;;;;;;;;;;;;;;;;;5070720;28;19931;-65
2023/06/28 00:41:46;;;;;;;;;;;;;;;;;;5073789;28;19963;-65
2023/06/28 00:44:12;;;;;;;;;;;;;;;;;;5072909;28;19963;-65
2023/06/28 00:46:38;;;;;;;;;;;;;;;;;;5070818;28;19920;-65
2023/06/28 00:49:04;;;;;;;;;;;;;;;;;;5071840;28;19938;-65
2023/06/28 00:51:30;;;;;;;;;;;;;;;;;;5070123;28;20324;-66
2023/06/28 00:53:56;;;;;;;;;;;;;;;;;;5072074;28;19966;-65
2023/06/28 00:56:22;;;;;;;;;;;;;;;;;;5072195;28;20257;-65
2023/06/28 00:58:47;;;;;;;;;;;;;;;;;;5072420;28;20011;-65
2023/06/28 01:01:13;;;;;;;;;;;;;;;;;;5053523;28;19928;-65
2023/06/28 01:03:39;;;;;;;;;;;;;;;;;;5069818;28;19924;-65
2023/06/28 01:06:05;;;;;;;;;;;;;;;;;;5070359;28;19931;-65
2023/06/28 01:08:31;;;;;;;;;;;;;;;;;;5073069;28;20462;-65
2023/06/28 01:10:57;;;;;;;;;;;;;;;;;;5070818;28;19932;-66
2023/06/28 01:13:23;;;;;;;;;;;;;;;;;;5070847;28;20415;-65
2023/06/28 01:15:49;;;;;;;;;;;;;;;;;;5071847;28;19921;-65
2023/06/28 01:18:19;;;;;;;;;;;;;;;;;;5072483;28;19931;-65
2023/06/28 01:20:45;;;;;;;;;;;;;;;;;;5071142;28;19924;-65
2023/06/28 01:23:11;;;;;;;;;;;;;;;;;;5071125;28;19925;-65
2023/06/28 01:25:37;;;;;;;;;;;;;;;;;;5072020;28;20362;-65
2023/06/28 01:28:03;;;;;;;;;;;;;;;;;;5067937;28;20025;-65
2023/06/28 01:30:29;;;;;;;;;;;;;;;;;;5070623;28;20295;-65
2023/06/28 01:32:55;;;;;;;;;;;;;;;;;;5071280;28;20680;-65
2023/06/28 01:35:21;;;;;;;;;;;;;;;;;;5070574;28;20005;-65
2023/06/28 01:37:47;;;;;;;;;;;;;;;;;;5072705;28;20003;-65
2023/06/28 01:40:13;;;;;;;;;;;;;;;;;;5070399;28;20380;-65
2023/06/28 01:42:39;;;;;;;;;;;;;;;;;;5070373;28;19928;-65
2023/06/28 01:45:04;;;;;;;;;;;;;;;;;;5071663;28;19944;-65
2023/06/28 01:47:30;;;;;;;;;;;;;;;;;;5069047;28;19924;-65
2023/06/28 01:49:56;;;;;;;;;;;;;;;;;;5070616;28;20038;-65
2023/06/28 01:52:22;;;;;;;;;;;;;;;;;;5065643;28;19929;-65
2023/06/28 01:54:48;;;;;;;;;;;;;;;;;;5069669;28;19921;-65
2023/06/28 01:57:14;;;;;;;;;;;;;;;;;;5071495;28;19943;-65
2023/06/28 01:59:40;;;;;;;;;;;;;;;;;;5073108;28;19931;-65
2023/06/28 02:02:06;;;;;;;;;;;;;;;;;;5068994;28;20364;-65
2023/06/28 02:04:32;;;;;;;;;;;;;;;;;;5069532;28;19931;-65
2023/06/28 02:06:58;;;;;;;;;;;;;;;;;;5068119;28;19924;-65
2023/06/28 02:09:23;;;;;;;;;;;;;;;;;;5067884;28;19964;-65
2023/06/28 02:11:49;;;;;;;;;;;;;;;;;;5066823;28;19931;-65
2023/06/28 02:14:15;;;;;;;;;;;;;;;;;;5045612;28;19967;-65
2023/06/28 02:16:41;;;;;;;;;;;;;;;;;;5058852;28;19920;-65
2023/06/28 02:19:11;;;;;;;;;;;;;;;;;;5061297;28;19928;-65
2023/06/28 02:21:37;;;;;;;;;;;;;;;;;;5062321;28;19935;-65
2023/06/28 02:24:03;;;;;;;;;;;;;;;;;;5067960;28;19921;-65
2023/06/28 02:26:29;;;;;;;;;;;;;;;;;;5058714;28;19960;-65
2023/06/28 02:28:55;;;;;;;;;;;;;;;;;;5068262;28;19992;-65
2023/06/28 02:31:21;;;;;;;;;;;;;;;;;;5064948;28;19960;-65
2023/06/28 02:33:47;;;;;;;;;;;;;;;;;;5069596;28;19930;-65
2023/06/28 02:36:13;;;;;;;;;;;;;;;;;;5067639;28;20297;-65
2023/06/28 02:38:39;;;;;;;;;;;;;;;;;;5071065;28;20015;-65
2023/06/28 02:41:05;;;;;;;;;;;;;;;;;;5069798;28;20011;-65
2023/06/28 02:43:31;;;;;;;;;;;;;;;;;;5070151;28;19920;-65
2023/06/28 02:45:57;;;;;;;;;;;;;;;;;;5067273;28;19932;-65
2023/06/28 02:48:23;;;;;;;;;;;;;;;;;;5070737;28;20279;-65
2023/06/28 02:50:49;;;;;;;;;;;;;;;;;;5067561;28;19925;-65
2023/06/28 02:53:15;;;;;;;;;;;;;;;;;;5066578;28;20289;-65
2023/06/28 02:55:40;;;;;;;;;;;;;;;;;;5068103;28;20301;-65
2023/06/28 02:58:06;;;;;;;;;;;;;;;;;;5069002;28;19924;-65
2023/06/28 03:00:32;;;;;;;;;;;;;;;;;;5068808;28;20011;-65
2023/06/28 03:02:58;;;;;;;;;;;;;;;;;;5069269;28;19920;-65
2023/06/28 03:05:24;;;;;;;;;;;;;;;;;;5052175;28;20401;-65
2023/06/28 03:07:50;;;;;;;;;;;;;;;;;;5068055;28;19974;-65
2023/06/28 03:10:16;;;;;;;;;;;;;;;;;;5067078;28;20039;-65
2023/06/28 03:12:42;;;;;;;;;;;;;;;;;;5068089;28;19927;-65
2023/06/28 03:15:08;;;;;;;;;;;;;;;;;;5064330;28;19935;-65
2023/06/28 03:17:33;;;;;;;;;;;;;;;;;;5066352;28;20304;-65
2023/06/28 03:19:59;;;;;;;;;;;;;;;;;;5064919;28;19928;-65
2023/06/28 03:22:25;;;;;;;;;;;;;;;;;;5062372;28;20011;-65
2023/06/28 03:24:51;;;;;;;;;;;;;;;;;;5050159;28;20007;-65
2023/06/28 03:27:17;;;;;;;;;;;;;;;;;;5066558;28;19935;-65
2023/06/28 03:29:43;;;;;;;;;;;;;;;;;;5065535;28;19961;-65
2023/06/28 03:32:09;;;;;;;;;;;;;;;;;;5060327;28;19979;-65
2023/06/28 03:34:35;;;;;;;;;;;;;;;;;;5068194;28;19924;-65
2023/06/28 03:37:01;;;;;;;;;;;;;;;;;;5061992;28;19951;-65
2023/06/28 03:39:27;;;;;;;;;;;;;;;;;;5065157;28;19920;-65
2023/06/28 03:41:52;;;;;;;;;;;;;;;;;;5066277;28;19925;-65
2023/06/28 03:44:18;;;;;;;;;;;;;;;;;;5066255;28;19928;-66
2023/06/28 03:46:44;;;;;;;;;;;;;;;;;;5066599;28;19924;-65
2023/06/28 03:49:10;;;;;;;;;;;;;;;;;;5057558;28;19929;-65
2023/06/28 03:51:37;;;;;;;;;;;;;;;;;;5056566;28;19943;-65
2023/06/28 03:54:03;;;;;;;;;;;;;;;;;;5066536;28;19924;-65
2023/06/28 03:56:29;;;;;;;;;;;;;;;;;;5068446;28;20374;-65
2023/06/28 03:58:55;;;;;;;;;;;;;;;;;;5066284;28;19966;-65
2023/06/28 04:01:21;;;;;;;;;;;;;;;;;;5066640;28;19959;-65
2023/06/28 04:03:47;;;;;;;;;;;;;;;;;;5062592;28;20247;-65
2023/06/28 04:06:13;;;;;;;;;;;;;;;;;;5064512;28;19928;-65
2023/06/28 04:08:38;;;;;;;;;;;;;;;;;;5067901;28;19928;-65
2023/06/28 04:11:04;;;;;;;;;;;;;;;;;;5069066;28;19928;-65
2023/06/28 04:13:30;;;;;;;;;;;;;;;;;;5068381;28;22068;-65
2023/06/28 04:15:56;;;;;;;;;;;;;;;;;;5062891;28;19956;-65
2023/06/28 04:18:22;;;;;;;;;;;;;;;;;;5066913;28;19920;-65
2023/06/28 04:20:48;;;;;;;;;;;;;;;;;;5067453;28;19935;-65
2023/06/28 04:23:14;;;;;;;;;;;;;;;;;;5066575;28;20629;-65
2023/06/28 04:25:40;;;;;;;;;;;;;;;;;;5068931;28;20370;-65
2023/06/28 04:28:06;;;;;;;;;;;;;;;;;;5067432;28;19971;-65
2023/06/28 04:30:32;;;;;;;;;;;;;;;;;;5068383;28;19977;-65
2023/06/28 04:32:58;;;;;;;;;;;;;;;;;;5068876;28;19932;-65
2023/06/28 04:35:24;;;;;;;;;;;;;;;;;;5072566;28;19973;-65
2023/06/28 04:37:50;;;;;;;;;;;;;;;;;;5072303;28;19985;-65
2023/06/28 04:40:16;;;;;;;;;;;;;;;;;;5073038;28;19924;-65
2023/06/28 04:42:42;;;;;;;;;;;;;;;;;;5071325;28;19928;-65
2023/06/28 04:45:09;;;;;;;;;;;;;;;;;;5069715;28;19924;-70
2023/06/28 04:47:35;;;;;;;;;;;;;;;;;;5068460;28;19928;-66
2023/06/28 04:50:02;;;;;;;;;;;;;;;;;;5071620;28;19928;-65
2023/06/28 04:52:28;;;;;;;;;;;;;;;;;;5074171;28;19927;-64
2023/06/28 04:54:54;;;;;;;;;;;;;;;;;;5072450;28;19920;-63
2023/06/28 04:57:20;;;;;;;;;;;;;;;;;;5073169;28;19924;-65
2023/06/28 04:59:46;;;;;;;;;;;;;;;;;;5070906;28;20282;-66
2023/06/28 05:02:14;;;;;;;;;;;;;;;;;;5050342;28;19932;-65
2023/06/28 05:04:40;;;;;;;;;;;;;;;;;;5072196;28;19924;-66
2023/06/28 05:07:06;;;;;;;;;;;;;;;;;;5072593;28;19927;-65
2023/06/28 05:09:32;;;;;;;;;;;;;;;;;;5072810;28;19955;-66
2023/06/28 05:11:58;;;;;;;;;;;;;;;;;;5072635;28;20354;-66
2023/06/28 05:14:24;;;;;;;;;;;;;;;;;;5069597;28;19983;-66
2023/06/28 05:16:50;;;;;;;;;;;;;;;;;;5070605;28;19959;-66
2023/06/28 05:19:16;;;;;;;;;;;;;;;;;;5065738;28;20570;-65
2023/06/28 05:21:42;;;;;;;;;;;;;;;;;;5069525;28;19925;-66
2023/06/28 05:24:08;;;;;;;;;;;;;;;;;;5048522;28;20313;-66
2023/06/28 05:26:34;;;;;;;;;;;;;;;;;;5069006;28;19967;-66
2023/06/28 05:29:00;;;;;;;;;;;;;;;;;;5070715;28;19924;-66
2023/06/28 05:31:25;;;;;;;;;;;;;;;;;;5067268;28;19948;-66
2023/06/28 05:33:51;;;;;;;;;;;;;;;;;;5071583;28;19928;-66
2023/06/28 05:36:20;;;;;;;;;;;;;;;;;;5070495;28;19924;-66
2023/06/28 05:38:46;;;;;;;;;;;;;;;;;;5069607;28;20019;-66
2023/06/28 05:41:12;;;;;;;;;;;;;;;;;;5072250;28;19932;-66
2023/06/28 05:43:38;;;;;;;;;;;;;;;;;;5068610;28;19920;-65
2023/06/28 05:46:04;;;;;;;;;;;;;;;;;;5069581;28;19924;-65
2023/06/28 05:48:30;;;;;;;;;;;;;;;;;;5070170;28;19971;-66
2023/06/28 05:50:56;;;;;;;;;;;;;;;;;;5068160;28;20472;-66
2023/06/28 05:53:22;;;;;;;;;;;;;;;;;;5071440;28;19921;-66
2023/06/28 05:55:48;;;;;;;;;;;;;;;;;;5071295;28;19920;-66
2023/06/28 05:58:13;;;;;;;;;;;;;;;;;;5068655;28;19931;-65
2023/06/28 06:00:39;;;;;;;;;;;;;;;;;;5066609;28;19939;-66
2023/06/28 06:03:05;;;;;;;;;;;;;;;;;;5070093;28;19921;-65
2023/06/28 06:05:31;;;;;;;;;;;;;;;;;;5067461;28;19920;-65
2023/06/28 06:07:57;;;;;;;;;;;;;;;;;;5063995;28;20397;-66
2023/06/28 06:10:23;;;;;;;;;;;;;;;;;;5069728;28;19924;-66
2023/06/28 06:12:49;;;;;;;;;;;;;;;;;;5069739;28;20314;-66
2023/06/28 06:15:15;;;;;;;;;;;;;;;;;;5064690;28;19925;-66
2023/06/28 06:17:41;;;;;;;;;;;;;;;;;;5062738;28;19973;-66
2023/06/28 06:20:07;;;;;;;;;;;;;;;;;;5061570;28;19920;-66
2023/06/28 06:22:33;;;;;;;;;;;;;;;;;;5076356;22;19956;-66
2023/06/28 06:24:59;;;;;;;;;;;;;;;;;;5060821;28;19928;-66
2023/06/28 06:27:25;;;;;;;;;;;;;;;;;;5057376;28;19925;-66
2023/06/28 06:29:50;;;;;;;;;;;;;;;;;;5042790;28;20017;-66
2023/06/28 06:32:16;;;;;;;;;;;;;;;;;;5065382;28;19921;-66
2023/06/28 06:34:42;;;;;;;;;;;;;;;;;;5049213;28;19948;-65
2023/06/28 06:37:12;;;;;;;;;;;;;;;;;;5052424;28;19929;-66
2023/06/28 06:39:37;;;;;;;;;;;;;;;;;;5063357;28;19921;-66
2023/06/28 06:42:03;;;;;;;;;;;;;;;;;;5050730;28;19931;-66
2023/06/28 06:44:29;;;;;;;;;;;;;;;;;;5050054;28;19921;-66
2023/06/28 06:46:55;;;;;;;;;;;;;;;;;;5042895;28;19972;-66
2023/06/28 06:49:21;;;;;;;;;;;;;;;;;;5049040;28;19959;-66
2023/06/28 06:51:47;;;;;;;;;;;;;;;;;;5045193;28;19921;-65
2023/06/28 06:54:13;;;;;;;;;;;;;;;;;;5044265;28;19928;-65
2023/06/28 06:56:39;;;;;;;;;;;;;;;;;;5049031;28;19929;-66
2023/06/28 06:59:05;;;;;;;;;;;;;;;;;;5045083;28;19982;-65
2023/06/28 07:01:32;;;;;;;;;;;;;;;;;;5029377;28;20374;-66
2023/06/28 07:03:58;;;;;;;;;;;;;;;;;;5051118;28;19921;-66
2023/06/28 07:06:24;;;;;;;;;;;;;;;;;;5043948;28;20048;-65
2023/06/28 07:08:49;;;;;;;;;;;;;;;;;;5040110;28;19921;-65
2023/06/28 07:11:15;;;;;;;;;;;;;;;;;;5051540;28;19978;-66
2023/06/28 07:13:41;;;;;;;;;;;;;;;;;;5051855;28;19921;-65
2023/06/28 07:16:07;;;;;;;;;;;;;;;;;;5051875;28;19925;-65
2023/06/28 07:18:33;;;;;;;;;;;;;;;;;;5051423;28;19944;-65
2023/06/28 07:20:59;;;;;;;;;;;;;;;;;;5038767;28;19976;-65
2023/06/28 07:23:25;;;;;;;;;;;;;;;;;;5049518;28;19973;-66
2023/06/28 07:25:51;;;;;;;;;;;;;;;;;;5051403;28;19921;-65
2023/06/28 07:28:17;;;;;;;;;;;;;;;;;;5038194;28;20699;-66
2023/06/28 07:30:43;;;;;;;;;;;;;;;;;;5042723;28;20012;-66
2023/06/28 07:33:09;;;;;;;;;;;;;;;;;;5049924;28;20000;-66
2023/06/28 07:35:35;;;;;;;;;;;;;;;;;;5031706;28;19999;-66
2023/06/28 07:38:01;;;;;;;;;;;;;;;;;;5030898;28;19932;-66
2023/06/28 07:40:27;;;;;;;;;;;;;;;;;;5049015;28;19925;-66
2023/06/28 07:42:53;;;;;;;;;;;;;;;;;;5033497;28;19927;-66
2023/06/28 07:45:19;;;;;;;;;;;;;;;;;;5047924;28;19932;-66
2023/06/28 07:47:45;;;;;;;;;;;;;;;;;;5031578;28;19925;-66
2023/06/28 07:50:10;;;;;;;;;;;;;;;;;;5031560;28;20422;-66
2023/06/28 07:52:36;;;;;;;;;;;;;;;;;;5031571;28;20043;-66
2023/06/28 07:55:04;;;;;;;;;;;;;;;;;;5031346;28;20271;-66
2023/06/28 07:57:30;;;;;;;;;;;;;;;;;;5031330;28;20377;-66
2023/06/28 07:59:55;;;;;;;;;;;;;;;;;;5048109;28;19925;-66
2023/06/28 08:02:21;;;;;;;;;;;;;;;;;;5051163;28;19927;-66
2023/06/28 08:04:48;;;;;;;;;;;;;;;;;;5049141;28;19929;-66
2023/06/28 08:07:14;;;;;;;;;;;;;;;;;;5032846;28;19927;-66
2023/06/28 08:09:40;;;;;;;;;;;;;;;;;;5054857;28;20044;-66
2023/06/28 08:12:06;;;;;;;;;;;;;;;;;;5052588;28;20333;-66
2023/06/28 08:14:32;;;;;;;;;;;;;;;;;;5053005;28;19921;-66
2023/06/28 08:16:57;;;;;;;;;;;;;;;;;;5050343;28;19944;-66
2023/06/28 08:19:24;;;;;;;;;;;;;;;;;;5028467;28;19925;-66
2023/06/28 08:21:50;;;;;;;;;;;;;;;;;;5036066;28;19978;-66
2023/06/28 08:24:17;;;;;;;;;;;;;;;;;;5044807;28;20341;-66
2023/06/28 08:26:43;;;;;;;;;;;;;;;;;;5054336;28;19971;-67
2023/06/28 08:29:09;;;;;;;;;;;;;;;;;;5052324;28;20369;-66
2023/06/28 08:31:35;;;;;;;;;;;;;;;;;;5054903;28;19927;-66
2023/06/28 08:34:01;;;;;;;;;;;;;;;;;;5054495;28;19924;-66
2023/06/28 08:36:28;;;;;;;;;;;;;;;;;;5054266;28;19925;-66
2023/06/28 08:38:54;;;;;;;;;;;;;;;;;;5067919;28;19935;-66
2023/06/28 08:41:20;;;;;;;;;;;;;;;;;;5074625;28;19920;-66
2023/06/28 08:43:46;;;;;;;;;;;;;;;;;;5049812;28;19928;-64
2023/06/28 08:46:12;;;;;;;;;;;;;;;;;;5036429;28;19996;-64
2023/06/28 08:48:38;;;;;;;;;;;;;;;;;;5054296;28;19924;-64
2023/06/28 08:51:04;;;;;;;;;;;;;;;;;;5054184;28;19920;-64
2023/06/28 08:53:30;;;;;;;;;;;;;;;;;;5035924;28;20471;-64
2023/06/28 08:55:56;;;;;;;;;;;;;;;;;;5054452;28;19921;-64
2023/06/28 08:58:22;;;;;;;;;;;;;;;;;;5042866;28;20279;-64
2023/06/28 09:00:47;;;;;;;;;;;;;;;;;;5049592;28;19921;-64
2023/06/28 09:03:15;;;;;;;;;;;;;;;;;;5052072;28;19927;-64
2023/06/28 09:05:40;;;;;;;;;;;;;;;;;;5053857;28;19932;-64
2023/06/28 09:08:06;;;;;;;;;;;;;;;;;;5053698;28;19921;-64
2023/06/28 09:10:32;;;;;;;;;;;;;;;;;;5035973;28;19927;-64
2023/06/28 09:12:58;;;;;;;;;;;;;;;;;;5054162;28;20012;-64
2023/06/28 09:15:24;;;;;;;;;;;;;;;;;;5054109;28;20362;-64
2023/06/28 09:17:50;;;;;;;;;;;;;;;;;;5031894;28;19932;-64
2023/06/28 09:20:16;;;;;;;;;;;;;;;;;;5050960;28;19924;-64
2023/06/28 09:22:42;;;;;;;;;;;;;;;;;;5053559;28;19929;-64
2023/06/28 09:25:08;;;;;;;;;;;;;;;;;;5053743;28;19971;-64
2023/06/28 09:27:34;;;;;;;;;;;;;;;;;;5053821;28;20325;-64
2023/06/28 09:30:00;;;;;;;;;;;;;;;;;;5049893;28;19960;-64
2023/06/28 09:32:26;;;;;;;;;;;;;;;;;;5051954;28;19931;-64
2023/06/28 09:34:52;;;;;;;;;;;;;;;;;;5053383;28;19920;-66
2023/06/28 09:37:18;;;;;;;;;;;;;;;;;;5051826;28;19972;-66
2023/06/28 09:39:44;;;;;;;;;;;;;;;;;;5035553;28;19982;-66
2023/06/28 09:42:10;;;;;;;;;;;;;;;;;;5053366;28;20393;-66
2023/06/28 09:44:36;;;;;;;;;;;;;;;;;;5051286;28;20523;-66
2023/06/28 09:47:02;;;;;;;;;;;;;;;;;;5035466;28;19939;-66
2023/06/28 09:49:28;;;;;;;;;;;;;;;;;;5031068;28;20380;-66
2023/06/28 09:51:53;;;;;;;;;;;;;;;;;;5013085;28;19932;-66
2023/06/28 09:54:20;;;;;;;;;;;;;;;;;;5033221;28;19928;-66
2023/06/28 09:56:46;;;;;;;;;;;;;;;;;;5033352;28;19921;-66
2023/06/28 09:59:11;;;;;;;;;;;;;;;;;;5044938;28;19929;-66
2023/06/28 10:01:37;;;;;;;;;;;;;;;;;;5047654;28;19935;-66
2023/06/28 10:04:03;;;;;;;;;;;;;;;;;;5034760;28;19925;-66
2023/06/28 10:06:29;;;;;;;;;;;;;;;;;;5049137;28;20023;-66
2023/06/28 10:08:55;;;;;;;;;;;;;;;;;;5050978;28;19925;-66
2023/06/28 10:11:21;;;;;;;;;;;;;;;;;;5034893;28;20302;-66
2023/06/28 10:13:47;;;;;;;;;;;;;;;;;;5032706;28;19932;-66
2023/06/28 10:16:13;;;;;;;;;;;;;;;;;;5034672;28;19920;-66
2023/06/28 10:18:39;;;;;;;;;;;;;;;;;;5052597;28;19932;-66
2023/06/28 10:21:06;;;;;;;;;;;;;;;;;;5051702;28;19964;-66
2023/06/28 10:23:35;;;;;;;;;;;;;;;;;;5051935;28;19924;-66
2023/06/28 10:26:02;;;;;;;;;;;;;;;;;;5051850;28;19921;-66
2023/06/28 10:28:28;;;;;;;;;;;;;;;;;;5051662;28;19924;-66
2023/06/28 10:30:54;;;;;;;;;;;;;;;;;;5050083;28;19921;-66
2023/06/28 10:33:23;;;;;;;;;;;;;;;;;;5048211;28;19928;-66
2023/06/28 10:35:48;;;;;;;;;;;;;;;;;;5033312;28;20586;-66
2023/06/28 10:38:14;;;;;;;;;;;;;;;;;;5047549;28;19928;-66
2023/06/28 10:40:40;;;;;;;;;;;;;;;;;;5051865;28;19928;-66
2023/06/28 10:43:06;;;;;;;;;;;;;;;;;;5051771;28;20429;-66
2023/06/28 10:45:32;;;;;;;;;;;;;;;;;;5033612;28;19920;-66
2023/06/28 10:47:58;;;;;;;;;;;;;;;;;;5017557;28;19921;-66
2023/06/28 10:50:24;;;;;;;;;;;;;;;;;;5051536;28;19924;-65
2023/06/28 10:52:50;;;;;;;;;;;;;;;;;;5030461;28;19921;-66
2023/06/28 10:55:16;;;;;;;;;;;;;;;;;;5064285;28;20354;-66
2023/06/28 10:57:42;;;;;;;;;;;;;;;;;;5018783;28;19927;-65
2023/06/28 11:00:11;;;;;;;;;;;;;;;;;;5033119;28;20347;-66
2023/06/28 11:02:38;;;;;;;;;;;;;;;;;;5049835;28;21269;-66
2023/06/28 11:05:04;;;;;;;;;;;;;;;;;;5033727;28;19921;-65
2023/06/28 11:07:31;;;;;;;;;;;;;;;;;;5051819;28;20286;-65
2023/06/28 11:09:57;;;;;;;;;;;;;;;;;;5051747;28;19998;-65
2023/06/28 11:12:23;;;;;;;;;;;;;;;;;;5032395;28;20587;-65
2023/06/28 11:14:49;;;;;;;;;;;;;;;;;;5051656;28;19937;-65
2023/06/28 11:17:15;;;;;;;;;;;;;;;;;;5033816;28;19928;-65
2023/06/28 11:19:44;;;;;;;;;;;;;;;;;;5051790;28;19932;-66
2023/06/28 11:22:10;;;;;;;;;;;;;;;;;;5051383;28;20363;-66
2023/06/28 11:24:36;;;;;;;;;;;;;;;;;;5033567;28;19921;-66
2023/06/28 11:27:02;;;;;;;;;;;;;;;;;;5051826;28;19932;-65
2023/06/28 11:29:28;;;;;;;;;;;;;;;;;;5049777;28;20286;-66
2023/06/28 11:31:54;;;;;;;;;;;;;;;;;;5051755;28;19927;-66
2023/06/28 11:34:20;;;;;;;;;;;;;;;;;;5051654;28;20282;-65
2023/06/28 11:36:46;;;;;;;;;;;;;;;;;;5033766;28;19931;-66
2023/06/28 11:39:12;;;;;;;;;;;;;;;;;;5051609;28;20563;-66
2023/06/28 11:41:37;;;;;;;;;;;;;;;;;;5051171;28;19920;-66
2023/06/28 11:44:11;;;;;;;;;;;;;;;;;;5052916;28;19936;-65
2023/06/28 11:46:37;;;;;;;;;;;;;;;;;;5055506;28;20010;-65
2023/06/28 11:49:03;;;;;;;;;;;;;;;;;;5055652;28;19975;-65
2023/06/28 11:51:28;;;;;;;;;;;;;;;;;;5054797;28;19932;-66
2023/06/28 11:53:57;;;;;;;;;;;;;;;;;;5055265;28;19924;-66
2023/06/28 11:56:23;;;;;;;;;;;;;;;;;;5055463;28;19921;-65
2023/06/28 11:58:49;;;;;;;;;;;;;;;;;;5054938;28;19928;-66
2023/06/28 12:01:15;;;;;;;;;;;;;;;;;;5033129;28;19928;-66
2023/06/28 12:03:42;;;;;;;;;;;;;;;;;;5035564;28;19928;-66
2023/06/28 12:06:09;;;;;;;;;;;;;;;;;;5035993;28;19970;-66
2023/06/28 12:08:35;;;;;;;;;;;;;;;;;;5035050;28;19928;-66
2023/06/28 12:11:01;;;;;;;;;;;;;;;;;;5054725;28;20007;-66
2023/06/28 12:13:27;;;;;;;;;;;;;;;;;;5055065;28;20001;-65
2023/06/28 12:15:54;;;;;;;;;;;;;;;;;;5054665;28;19947;-66
2023/06/28 12:18:20;;;;;;;;;;;;;;;;;;5054781;28;19924;-66
2023/06/28 12:20:45;;;;;;;;;;;;;;;;;;5054526;28;19958;-65
2023/06/28 12:23:14;;;;;;;;;;;;;;;;;;5054409;28;20341;-66
2023/06/28 12:25:40;;;;;;;;;;;;;;;;;;5052463;28;20446;-66
2023/06/28 12:28:08;;;;;;;;;;;;;;;;;;5053906;28;19921;-65
2023/06/28 12:30:34;;;;;;;;;;;;;;;;;;5054173;28;19928;-65
2023/06/28 12:33:00;;;;;;;;;;;;;;;;;;5054151;28;20569;-65
2023/06/28 12:35:26;;;;;;;;;;;;;;;;;;5052427;28;19987;-66
2023/06/28 12:37:52;;;;;;;;;;;;;;;;;;5053862;28;19925;-65
2023/06/28 12:40:18;;;;;;;;;;;;;;;;;;5052513;28;19925;-66
2023/06/28 12:42:44;;;;;;;;;;;;;;;;;;5054339;28;20578;-66
2023/06/28 12:45:12;;;;;;;;;;;;;;;;;;5054601;28;19972;-66
2023/06/28 12:47:38;;;;;;;;;;;;;;;;;;5054640;28;19924;-66
2023/06/28 12:50:04;;;;;;;;;;;;;;;;;;5036309;28;20305;-66
2023/06/28 12:52:30;;;;;;;;;;;;;;;;;;5018307;28;19921;-66
2023/06/28 12:54:56;;;;;;;;;;;;;;;;;;5033208;28;19928;-66
2023/06/28 12:57:22;;;;;;;;;;;;;;;;;;5053350;28;20355;-66
2023/06/28 12:59:48;;;;;;;;;;;;;;;;;;5036303;28;19924;-66
2023/06/28 13:02:14;;;;;;;;;;;;;;;;;;5053429;28;19935;-66
2023/06/28 13:04:40;;;;;;;;;;;;;;;;;;5034935;28;19979;-65
2023/06/28 13:07:06;;;;;;;;;;;;;;;;;;5053641;28;20550;-65
2023/06/28 13:09:31;;;;;;;;;;;;;;;;;;5036052;28;19928;-66
2023/06/28 13:11:57;;;;;;;;;;;;;;;;;;5053897;28;19929;-66
2023/06/28 13:14:23;;;;;;;;;;;;;;;;;;5052106;28;19924;-66
2023/06/28 13:16:49;;;;;;;;;;;;;;;;;;5053906;28;19983;-65
2023/06/28 13:19:15;;;;;;;;;;;;;;;;;;5053896;28;20355;-65
2023/06/28 13:21:41;;;;;;;;;;;;;;;;;;5053606;28;19925;-66
2023/06/28 13:24:07;;;;;;;;;;;;;;;;;;5053546;28;19947;-66
2023/06/28 13:26:33;;;;;;;;;;;;;;;;;;5019191;28;20019;-66
2023/06/28 13:28:59;;;;;;;;;;;;;;;;;;5028993;28;19932;-66
2023/06/28 13:31:24;;;;;;;;;;;;;;;;;;5016232;28;19921;-66
2023/06/28 13:33:50;;;;;;;;;;;;;;;;;;5034362;28;20544;-66
2023/06/28 13:36:16;;;;;;;;;;;;;;;;;;5053583;28;19928;-66
2023/06/28 13:38:42;;;;;;;;;;;;;;;;;;5053136;28;20378;-66
2023/06/28 13:41:08;;;;;;;;;;;;;;;;;;5033954;28;19965;-66
2023/06/28 13:43:35;;;;;;;;;;;;;;;;;;5046974;28;19928;-66
2023/06/28 13:46:01;;;;;;;;;;;;;;;;;;5016988;28;20013;-66
2023/06/28 13:48:27;;;;;;;;;;;;;;;;;;5051411;28;19967;-66
2023/06/28 13:50:53;;;;;;;;;;;;;;;;;;5052190;28;19927;-66
2023/06/28 13:53:19;;;;;;;;;;;;;;;;;;5036418;28;20386;-66
2023/06/28 13:55:45;;;;;;;;;;;;;;;;;;5052447;28;19947;-65
2023/06/28 13:58:11;;;;;;;;;;;;;;;;;;5036449;28;20354;-66
2023/06/28 14:00:37;;;;;;;;;;;;;;;;;;5035005;28;19944;-66
2023/06/28 14:03:03;;;;;;;;;;;;;;;;;;5052402;28;19927;-66
2023/06/28 14:05:29;;;;;;;;;;;;;;;;;;5050486;28;19925;-63
2023/06/28 14:07:54;;;;;;;;;;;;;;;;;;5052622;28;19966;-63
2023/06/28 14:10:20;;;;;;;;;;;;;;;;;;5052849;28;20020;-63
2023/06/28 14:12:46;;;;;;;;;;;;;;;;;;5052627;28;19927;-63
2023/06/28 14:15:12;;;;;;;;;;;;;;;;;;5051154;28;20019;-63
2023/06/28 14:17:38;;;;;;;;;;;;;;;;;;5052525;28;20358;-63
2023/06/28 14:20:04;;;;;;;;;;;;;;;;;;5052563;28;19932;-63
2023/06/28 14:22:30;;;;;;;;;;;;;;;;;;5032518;28;20047;-63
2023/06/28 14:24:56;;;;;;;;;;;;;;;;;;5052100;28;20244;-63
2023/06/28 14:27:22;;;;;;;;;;;;;;;;;;5050267;28;19925;-63
2023/06/28 14:29:48;;;;;;;;;;;;;;;;;;5051621;28;19929;-63
2023/06/28 14:32:14;;;;;;;;;;;;;;;;;;5033673;28;19967;-63
2023/06/28 14:34:40;;;;;;;;;;;;;;;;;;5033591;28;19925;-63
2023/06/28 14:37:05;;;;;;;;;;;;;;;;;;5034299;28;19928;-63
2023/06/28 14:39:31;;;;;;;;;;;;;;;;;;5033963;28;20009;-63
2023/06/28 14:41:57;;;;;;;;;;;;;;;;;;5050545;28;19921;-63
2023/06/28 14:44:23;;;;;;;;;;;;;;;;;;5050006;28;20047;-63
2023/06/28 14:46:49;;;;;;;;;;;;;;;;;;5051948;28;19990;-63
2023/06/28 14:49:15;;;;;;;;;;;;;;;;;;5051922;28;19924;-63
2023/06/28 14:51:41;;;;;;;;;;;;;;;;;;5051936;28;19927;-63
2023/06/28 14:54:07;;;;;;;;;;;;;;;;;;5017614;28;20003;-63
2023/06/28 14:56:33;;;;;;;;;;;;;;;;;;5052123;28;19941;-63
2023/06/28 14:58:59;;;;;;;;;;;;;;;;;;5052023;28;19933;-63
2023/06/28 15:01:24;;;;;;;;;;;;;;;;;;5032314;28;19920;-63
2023/06/28 15:03:50;;;;;;;;;;;;;;;;;;5033382;28;19921;-63
2023/06/28 15:06:18;;;;;;;;;;;;;;;;;;5049553;28;19928;-63
2023/06/28 15:08:43;;;;;;;;;;;;;;;;;;5051735;28;20281;-63
2023/06/28 15:11:10;;;;;;;;;;;;;;;;;;5051962;28;19921;-63
2023/06/28 15:13:36;;;;;;;;;;;;;;;;;;5051697;28;19921;-63
2023/06/28 15:16:02;;;;;;;;;;;;;;;;;;5049745;28;19921;-65
2023/06/28 15:18:28;;;;;;;;;;;;;;;;;;5050975;28;19924;-65
2023/06/28 15:20:54;;;;;;;;;;;;;;;;;;5033237;28;19970;-65
2023/06/28 15:23:20;;;;;;;;;;;;;;;;;;5051696;28;20535;-65
2023/06/28 15:25:47;;;;;;;;;;;;;;;;;;5051443;28;19968;-66
2023/06/28 15:28:13;;;;;;;;;;;;;;;;;;5044466;28;20354;-66
2023/06/28 15:30:40;;;;;;;;;;;;;;;;;;5071435;28;20317;-66
2023/06/28 15:33:07;;;;;;;;;;;;;;;;;;5056534;28;20332;-66
2023/06/28 15:35:33;;;;;;;;;;;;;;;;;;5016764;28;19921;-66
2023/06/28 15:37:59;;;;;;;;;;;;;;;;;;5051256;28;20352;-66
2023/06/28 15:40:25;;;;;;;;;;;;;;;;;;5051048;28;19924;-65
2023/06/28 15:42:51;;;;;;;;;;;;;;;;;;5051439;28;19928;-66
2023/06/28 15:45:18;;;;;;;;;;;;;;;;;;5051514;28;19920;-66
2023/06/28 15:47:44;;;;;;;;;;;;;;;;;;5051407;28;19921;-66
2023/06/28 15:50:10;;;;;;;;;;;;;;;;;;5032006;28;19920;-66
2023/06/28 15:52:36;;;;;;;;;;;;;;;;;;5032936;28;19932;-66
2023/06/28 15:55:02;;;;;;;;;;;;;;;;;;5051086;28;19925;-66
2023/06/28 15:57:28;;;;;;;;;;;;;;;;;;5031693;28;19921;-66
2023/06/28 15:59:54;;;;;;;;;;;;;;;;;;5050927;28;19967;-66
2023/06/28 16:02:20;;;;;;;;;;;;;;;;;;5050607;28;20011;-66
2023/06/28 16:04:46;;;;;;;;;;;;;;;;;;5046421;28;20663;-66
2023/06/28 16:07:12;;;;;;;;;;;;;;;;;;5046615;28;19921;-66
2023/06/28 16:09:38;;;;;;;;;;;;;;;;;;5015506;28;20024;-66
2023/06/28 16:12:04;;;;;;;;;;;;;;;;;;5050252;28;19931;-66
2023/06/28 16:14:29;;;;;;;;;;;;;;;;;;5050371;28;19967;-66
2023/06/28 16:16:55;;;;;;;;;;;;;;;;;;5050136;28;20577;-66
2023/06/28 16:19:22;;;;;;;;;;;;;;;;;;5050337;28;20469;-66
2023/06/28 16:21:48;;;;;;;;;;;;;;;;;;5047911;28;19925;-66
2023/06/28 16:24:14;;;;;;;;;;;;;;;;;;5048545;28;19939;-66
2023/06/28 16:26:40;;;;;;;;;;;;;;;;;;5046424;28;19971;-66
2023/06/28 16:29:06;;;;;;;;;;;;;;;;;;5051472;28;19921;-66
2023/06/28 16:31:32;;;;;;;;;;;;;;;;;;5054458;28;19928;-66
2023/06/28 16:33:58;;;;;;;;;;;;;;;;;;5052309;28;20396;-66
2023/06/28 16:36:24;;;;;;;;;;;;;;;;;;5036170;28;19982;-66